Time;durP1;ratioP1;P1;durP2;ratioP2;P2;SDS_P1;SDS_P2;PMS_P1;PMS_P2;Temp;Humidity;BMP_temperature;BMP_pressure;BME280_temperature;BME280_humidity;BME280_pressure;Samples;Min_cycle;Max_cycle;Signal;HPM_P1;HPM_P2
2022/12/21 00:01:39;;;;;;;8.13;3.83;;;;;;;17.08;56.64;101126.38;6303108;22;20007;-89
2022/12/21 08:13:22;;;;;;;3.03;1.63;;;;;;;17.34;54.42;101035.25;6302852;22;20084;-85
2022/12/21 08:15:48;;;;;;;2.67;1.77;;;;;;;17.35;54.57;101035.22;6289941;22;20011;-85
2022/12/21 08:18:13;;;;;;;3.17;1.70;;;;;;;17.35;54.31;101040.44;6267810;22;20007;-83
2022/12/21 08:20:43;;;;;;;4.45;1.75;;;;;;;17.36;54.64;101036.97;6265539;22;20007;-84
2022/12/21 08:23:09;;;;;;;2.25;1.63;;;;;;;17.39;54.24;101044.75;6319562;22;20010;-85
2022/12/21 08:25:34;;;;;;;2.92;1.45;;;;;;;17.39;54.22;101044.75;6294731;22;19999;-85
2022/12/21 08:28:00;;;;;;;3.30;1.70;;;;;;;17.41;54.25;101050.81;6291805;22;20014;-86
2022/12/21 08:30:25;;;;;;;1.98;1.48;;;;;;;17.40;54.08;101056.91;6319429;22;20094;-85
2022/12/21 08:32:51;;;;;;;2.95;1.50;;;;;;;17.42;54.09;101060.34;6290167;22;20003;-86
2022/12/21 08:38:39;;;;;;;2.15;1.42;;;;;;;17.46;54.22;101075.09;6321082;22;20340;-84
2022/12/21 08:41:05;;;;;;;2.00;1.50;;;;;;;17.46;54.03;101063.78;6286938;22;20007;-85
2022/12/21 08:43:30;;;;;;;2.83;1.70;;;;;;;17.45;54.02;101057.72;6261931;22;20389;-85
2022/12/21 08:45:56;;;;;;;3.20;1.65;;;;;;;17.46;54.18;101059.47;6286401;22;20017;-85
2022/12/21 08:48:22;;;;;;;3.05;1.80;;;;;;;17.47;54.02;101050.78;6313618;22;20042;-84
2022/12/21 08:50:53;;;;;;;3.15;1.70;;;;;;;17.47;54.11;101049.94;6285870;22;20502;-85
2022/12/21 08:53:19;;;;;;;2.45;1.80;;;;;;;17.48;53.78;101051.63;6236953;22;20027;-85
2022/12/21 08:55:50;;;;;;;2.35;1.80;;;;;;;17.48;53.83;101046.44;6288681;22;20010;-85
2022/12/21 08:58:16;;;;;;;3.08;1.70;;;;;;;17.48;53.93;101041.22;6289330;22;20001;-86
2022/12/21 09:00:45;;;;;;;2.63;1.90;;;;;;;17.49;53.90;101037.78;6284757;22;20005;-85
2022/12/21 09:03:11;;;;;;;2.50;1.95;;;;;;;17.51;53.79;101038.63;6284178;22;20418;-85
2022/12/21 09:05:37;;;;;;;3.05;1.88;;;;;;;17.51;53.77;101037.75;6284791;22;20035;-84
2022/12/21 09:08:03;;;;;;;2.67;1.75;;;;;;;17.54;53.70;101032.53;6311335;22;19999;-84
2022/12/21 09:10:29;;;;;;;3.97;1.83;;;;;;;17.56;53.75;101021.25;6261443;22;20082;-91
2022/12/21 09:12:55;;;;;;;3.08;2.15;;;;;;;17.57;53.73;101022.09;6287007;22;20019;-90
2022/12/21 09:15:21;;;;;;;2.42;1.67;;;;;;;17.58;53.84;101029.91;6234514;22;20024;-90
2022/12/21 09:18:00;;;;;;;2.70;1.85;;;;;;;17.59;53.74;101020.34;6260741;22;20331;-91
2022/12/21 09:20:25;;;;;;;3.33;2.10;;;;;;;17.60;53.54;101020.34;6260913;22;20018;-91
2022/12/21 09:22:51;;;;;;;2.63;1.88;;;;;;;17.63;53.53;101027.25;6232291;22;20336;-91
2022/12/21 09:25:19;;;;;;;2.65;2.13;;;;;;;17.62;53.55;101028.16;6257705;22;20447;-91
2022/12/21 09:27:45;;;;;;;3.22;2.10;;;;;;;17.64;53.81;101034.22;6257181;22;20141;-91
2022/12/21 09:36:44;;;;;;;3.15;2.10;;;;;;;17.66;53.52;101037.66;6259467;23;20031;-91
2022/12/21 09:39:09;;;;;;;3.22;2.10;;;;;;;17.66;53.44;101035.06;6250949;23;20012;-84
2022/12/21 09:41:45;;;;;;;3.25;2.00;;;;;;;17.67;53.55;101031.56;6246762;23;20008;-85
2022/12/21 09:44:44;;;;;;;2.88;2.10;;;;;;;17.69;53.37;101038.50;6246568;23;20475;-85
2022/12/21 09:48:03;;;;;;;3.75;2.10;;;;;;;17.68;53.52;101028.97;6247308;23;20004;-84
2022/12/21 09:50:37;;;;;;;3.35;2.20;;;;;;;17.68;53.33;101021.16;6186781;23;20024;-85
2022/12/21 09:53:12;;;;;;;;;;;;;;;17.71;53.43;101033.28;6245360;23;20117;-86
2022/12/21 09:55:45;;;;;;;4.20;2.22;;;;;;;17.70;53.26;101028.94;6223760;23;19977;-85
2022/12/21 09:58:15;;;;;;;4.43;2.03;;;;;;;17.70;53.42;101026.34;6272314;22;20007;-86
2022/12/21 10:00:45;;;;;;;3.17;1.83;;;;;;;17.71;53.36;101030.69;6255988;22;20424;-87
2022/12/21 10:06:55;;;;;;;3.53;2.20;;;;;;;17.71;53.25;101022.88;6281812;22;20095;-84
2022/12/21 10:09:59;;;;;;;3.40;2.03;;;;;;;17.76;53.46;101023.69;6279383;22;20105;-84
2022/12/21 10:22:47;;;;;;;2.63;1.88;;;;;;;17.77;53.21;101028.03;6282772;22;20019;-87
2022/12/21 10:31:57;;;;;;;3.53;2.20;;;;;;;17.72;53.51;101040.22;6286135;22;20081;-86
2022/12/21 10:35:00;;;;;;;3.40;2.30;;;;;;;17.69;53.58;101050.66;6254273;22;19999;-85
2022/12/21 10:37:28;;;;;;;2.90;2.00;;;;;;;17.67;53.51;101040.25;6284435;22;20012;-86
2022/12/21 10:39:56;;;;;;;3.30;1.90;;;;;;;17.66;53.78;101042.88;6234001;22;20014;-87
2022/12/21 10:45:32;;;;;;;2.92;1.73;;;;;;;17.64;53.63;101034.22;6288384;22;20024;-85
2022/12/21 10:47:57;;;;;;;2.45;1.85;;;;;;;17.62;53.75;101022.94;6287280;22;20355;-85
2022/12/21 11:00:36;;;;;;;2.35;1.50;;;;;;;17.63;53.52;100998.63;6297918;22;20019;-85
2022/12/21 11:16:28;;;;;;;2.20;1.35;;;;;;;17.64;53.91;101000.38;6283329;22;20368;-87
2022/12/21 11:18:58;;;;;;;3.20;1.60;;;;;;;17.64;53.62;100993.44;6286465;22;19995;-85
2022/12/21 11:24:47;;;;;;;2.15;1.50;;;;;;;17.65;53.67;100989.94;6288064;22;20026;-87
2022/12/21 11:33:56;;;;;;;2.72;1.55;;;;;;;17.68;53.38;100983.84;6285351;22;20046;-87
2022/12/21 11:36:22;;;;;;;2.58;1.50;;;;;;;17.69;53.87;100985.59;6278269;22;20436;-87
2022/12/21 11:38:47;;;;;;;2.25;1.50;;;;;;;17.69;53.43;100967.38;6253526;22;20057;-88
2022/12/21 11:44:35;;;;;;;2.92;1.45;;;;;;;17.68;53.61;100976.03;6286027;22;20046;-86
2022/12/21 11:47:13;;;;;;;2.25;1.40;;;;;;;17.69;53.50;100967.38;6279034;22;20012;-86
2022/12/21 11:50:08;;;;;;;4.03;1.65;;;;;;;17.71;53.61;100963.00;6283505;22;20010;-88
2022/12/21 11:52:57;;;;;;;2.72;1.42;;;;;;;17.71;53.51;100954.34;6283320;22;20428;-87
2022/12/21 11:56:01;;;;;;;2.72;1.60;;;;;;;17.71;53.71;100944.78;6282560;22;20011;-87
2022/12/21 11:59:04;;;;;;;2.35;1.48;;;;;;;17.72;53.54;100949.13;6286363;22;20106;-87
2022/12/21 12:05:35;;;;;;;2.42;1.48;;;;;;;17.74;53.61;100952.56;6295054;22;20030;-88
2022/12/21 12:17:59;;;;;;;4.55;1.50;;;;;;;17.77;53.66;100928.25;6285301;22;20041;-87
2022/12/21 12:33:46;;;;;;;2.97;1.23;;;;;;;17.84;53.76;100916.97;6282518;22;20080;-87
2022/12/21 12:36:50;;;;;;;2.40;1.40;;;;;;;17.83;53.60;100923.91;6255068;22;20015;-87
2022/12/21 12:39:18;;;;;;;;;;;;;;;17.84;53.52;100922.16;6253634;22;20440;-87
2022/12/21 12:42:23;;;;;;;2.13;1.40;;;;;;;17.85;53.37;100923.88;6250554;22;19908;-90
2022/12/21 12:51:52;;;;;;;3.28;1.58;;;;;;;17.84;53.88;100899.59;6291522;22;20023;-88
2022/12/21 12:54:48;;;;;;;2.40;1.52;;;;;;;17.84;53.61;100888.31;6229721;22;20022;-88
2022/12/21 13:00:33;;;;;;;2.45;1.58;;;;;;;17.83;53.58;100873.56;6284424;22;20018;-85
2022/12/21 13:13:39;;;;;;;2.97;1.52;;;;;;;17.84;53.67;100859.69;6284579;22;20034;-86
2022/12/21 13:22:36;;;;;;;2.38;1.40;;;;;;;17.83;53.61;100865.75;6255435;23;20023;-85
2022/12/21 13:25:32;;;;;;;1.98;1.42;;;;;;;17.85;53.55;100861.41;6223468;23;20000;-86
2022/12/21 13:27:58;;;;;;;2.03;1.40;;;;;;;17.84;53.67;100867.50;6222651;23;20008;-86
2022/12/21 13:30:23;;;;;;;1.98;1.30;;;;;;;17.84;53.46;100857.09;6223072;23;20038;-86
2022/12/21 13:33:20;;;;;;;2.25;1.30;;;;;;;17.85;53.63;100864.84;6198066;23;20004;-86
2022/12/21 13:36:03;;;;;;;2.58;1.38;;;;;;;17.85;53.70;100864.00;6250806;23;20004;-88
2022/12/21 13:38:37;;;;;;;2.25;1.40;;;;;;;17.84;53.68;100868.34;6224985;23;20031;-86
2022/12/21 13:41:21;;;;;;;2.08;1.35;;;;;;;17.82;53.65;100870.09;6251936;23;20027;-88
2022/12/21 13:47:11;;;;;;;2.47;1.63;;;;;;;17.82;53.80;100870.09;6253606;23;20030;-86
2022/12/21 13:50:14;;;;;;;2.22;1.55;;;;;;;17.81;53.86;100872.69;6224232;23;20000;-86
2022/12/21 13:53:23;;;;;;;2.43;1.60;;;;;;;17.82;53.71;100872.72;6224930;23;20081;-86
2022/12/21 13:56:11;;;;;;;2.05;1.45;;;;;;;17.81;53.66;100857.06;6226245;23;20377;-85
2022/12/21 14:05:27;;;;;;;1.77;1.45;;;;;;;17.83;53.53;100860.53;6255051;23;20022;-86
2022/12/21 14:11:40;;;;;;;2.08;1.65;;;;;;;17.82;53.42;100856.22;6256558;23;20422;-85
2022/12/21 14:14:40;;;;;;;2.30;1.58;;;;;;;17.83;53.63;100858.84;6196509;23;20004;-86
2022/12/21 14:20:42;;;;;;;2.00;1.50;;;;;;;17.83;53.66;100853.63;6285574;22;20019;-86
2022/12/21 14:23:23;;;;;;;2.30;1.55;;;;;;;17.83;53.71;100850.13;6279967;22;20018;-85
2022/12/21 14:25:49;;;;;;;2.30;1.70;;;;;;;17.82;53.39;100851.88;6278534;22;20000;-85
2022/12/21 14:28:21;;;;;;;2.75;1.63;;;;;;;17.85;53.36;100837.97;6228447;22;20016;-86
2022/12/21 14:31:17;;;;;;;4.03;1.60;;;;;;;17.83;53.63;100840.63;6278331;22;20000;-86
2022/12/21 14:40:27;;;;;;;3.42;1.60;;;;;;;17.84;53.68;100834.50;6282652;22;20386;-88
2022/12/21 14:42:52;;;;;;;2.55;1.60;;;;;;;17.85;53.69;100832.75;6280285;22;20008;-86
2022/12/21 14:48:42;;;;;;;1.90;1.40;;;;;;;17.86;53.69;100818.88;6290808;22;20042;-89
2022/12/21 14:51:10;;;;;;;1.90;1.50;;;;;;;17.83;53.53;100811.97;6286826;22;20073;-86
2022/12/21 14:54:06;;;;;;;2.60;1.60;;;;;;;17.85;53.52;100802.38;6278229;22;20066;-84
2022/12/21 16:07:52;;;;;;;2.40;1.63;;;;;;;17.87;53.50;100779.78;6322372;22;20030;-91
2022/12/21 16:13:41;;;;;;;2.15;1.40;;;;;;;17.87;53.49;100758.13;6313798;22;20059;-86
2022/12/21 16:16:16;;;;;;;3.95;1.70;;;;;;;17.90;53.44;100765.91;6281928;22;20003;-87
2022/12/21 16:18:42;;;;;;;3.63;1.58;;;;;;;17.91;53.39;100758.94;6282427;22;20003;-85
2022/12/21 16:21:14;;;;;;;2.15;1.83;;;;;;;17.91;53.48;100753.75;6282868;22;20008;-86
2022/12/21 16:23:43;;;;;;;8.57;2.33;;;;;;;17.99;53.43;100751.91;6285279;22;19999;-88
2022/12/21 16:26:18;;;;;;;13.27;2.35;;;;;;;18.00;53.24;100745.81;6286517;22;20072;-88
2022/12/21 16:28:46;;;;;;;4.35;2.20;;;;;;;17.94;53.52;100743.28;6286496;22;19995;-91
2022/12/21 16:34:40;;;;;;;5.75;2.10;;;;;;;17.81;53.74;100737.31;6319810;22;20021;-88
2022/12/21 16:37:12;;;;;;;5.10;2.05;;;;;;;17.79;53.59;100744.28;6264444;22;20011;-90
2022/12/21 16:39:38;;;;;;;3.75;2.42;;;;;;;17.77;53.54;100743.44;6287651;22;19999;-89
2022/12/21 16:42:04;;;;;;;6.75;2.13;;;;;;;17.73;53.62;100733.97;6240434;22;20010;-89
2022/12/21 16:44:55;;;;;;;8.52;2.40;;;;;;;17.74;53.72;100727.88;6238471;22;20007;-88
2022/12/21 16:47:26;;;;;;;3.53;2.47;;;;;;;17.72;53.67;100733.09;6298723;22;20074;-89
2022/12/21 16:49:53;;;;;;;5.00;2.17;;;;;;;17.71;53.71;100725.31;6292880;22;19999;-86
2022/12/21 16:52:47;;;;;;;5.80;2.13;;;;;;;17.69;53.60;100727.94;6287122;22;20336;-86
2022/12/21 16:55:27;;;;;;;3.33;2.00;;;;;;;17.69;53.60;100723.59;6292850;22;20088;-90
2022/12/21 16:58:09;;;;;;;5.57;2.10;;;;;;;17.68;53.64;100727.09;6269610;22;20003;-87
2022/12/21 17:00:36;;;;;;;6.00;2.10;;;;;;;17.69;53.81;100728.78;6318115;22;20015;-87
2022/12/21 17:03:11;;;;;;;4.65;1.98;;;;;;;17.69;53.80;100734.00;6295630;22;20003;-89
2022/12/21 17:05:42;;;;;;;2.47;1.90;;;;;;;17.68;53.75;100724.47;6294880;22;20006;-87
2022/12/21 17:08:25;;;;;;;2.55;1.67;;;;;;;17.68;53.83;100727.09;6294507;22;20004;-88
2022/12/21 17:10:59;;;;;;;3.20;2.00;;;;;;;17.68;53.70;100723.59;6297350;22;20007;-90
2022/12/21 17:13:24;;;;;;;3.10;1.92;;;;;;;17.69;53.60;100717.53;6290698;22;20079;-88
2022/12/21 17:22:34;;;;;;;2.33;1.73;;;;;;;17.67;53.63;100719.28;6292993;22;20038;-86
2022/12/21 17:31:52;;;;;;;4.55;1.70;;;;;;;17.68;53.63;100714.06;6292440;22;20023;-85
2022/12/21 17:34:53;;;;;;;3.08;1.98;;;;;;;17.68;53.64;100708.88;6287936;22;20007;-85
2022/12/21 17:47:29;;;;;;;3.75;1.70;;;;;;;17.69;53.77;100699.31;6298983;22;20073;-89
2022/12/21 17:49:54;;;;;;;3.33;1.50;;;;;;;17.68;53.90;100706.25;6270628;22;20034;-88
2022/12/21 17:52:20;;;;;;;2.03;1.50;;;;;;;17.69;53.80;100699.31;6293494;22;19995;-88
2022/12/21 17:54:45;;;;;;;4.28;1.60;;;;;;;17.68;53.79;100701.06;6293301;22;20038;-87
2022/12/21 17:57:24;;;;;;;2.20;1.52;;;;;;;17.67;53.85;100701.91;6292902;22;20002;-85
2022/12/21 17:59:50;;;;;;;4.22;1.63;;;;;;;17.69;53.79;100691.50;6289482;22;20007;-88
2022/12/21 18:02:30;;;;;;;;;;;;;;;;;;;;;
2022/12/21 18:04:59;;;;;;;6.55;2.60;;;;;;;17.80;53.92;100688.75;6285588;22;20023;-87
2022/12/21 18:07:26;;;;;;;7.95;2.20;;;;;;;17.82;53.80;100695.69;6258426;22;20038;-86
2022/12/21 18:09:58;;;;;;;5.38;2.53;;;;;;;17.86;53.65;100692.19;6285513;22;20003;-88
2022/12/21 18:12:24;;;;;;;4.32;2.47;;;;;;;17.87;53.66;100690.44;6260420;22;20023;-86
2022/12/21 18:14:50;;;;;;;4.78;2.30;;;;;;;17.89;53.67;100684.31;6283864;22;20046;-85
2022/12/21 18:17:16;;;;;;;5.25;2.25;;;;;;;17.90;53.71;100687.81;6282024;22;20073;-86
2022/12/21 18:19:42;;;;;;;4.50;2.15;;;;;;;17.89;53.95;100691.28;6282750;22;20007;-88
2022/12/21 18:22:11;;;;;;;3.95;2.10;;;;;;;17.88;53.69;100681.75;6284662;22;19995;-85
2022/12/21 18:24:44;;;;;;;6.80;2.05;;;;;;;17.88;53.76;100673.94;6283172;22;20012;-90
2022/12/21 18:27:17;;;;;;;4.17;2.17;;;;;;;17.90;53.70;100677.41;6286203;22;20000;-88
2022/12/21 18:29:43;;;;;;;3.80;2.03;;;;;;;17.91;54.01;100667.84;6285651;22;20309;-90
2022/12/21 18:32:12;;;;;;;6.55;2.20;;;;;;;17.90;53.70;100677.41;6286978;22;19996;-89
2022/12/21 18:34:46;;;;;;;2.63;1.88;;;;;;;17.89;54.10;100668.69;6287774;22;20015;-89
2022/12/21 18:37:16;;;;;;;5.57;2.03;;;;;;;17.90;53.77;100661.78;6264341;22;20018;-89
2022/12/21 18:39:42;;;;;;;2.60;1.70;;;;;;;17.90;53.71;100653.97;6293785;22;20025;-88
2022/12/21 18:42:16;;;;;;;4.15;2.00;;;;;;;17.91;53.94;100654.81;6289526;22;20000;-85
2022/12/21 18:44:45;;;;;;;3.10;2.00;;;;;;;17.88;53.71;100647.91;6286121;22;20011;-85
2022/12/21 18:47:18;;;;;;;4.68;2.13;;;;;;;17.90;53.96;100643.56;6286893;22;20026;-85
2022/12/21 18:53:13;;;;;;;4.13;2.40;;;;;;;17.93;53.84;100642.66;6289893;22;20539;-87
2022/12/21 18:55:39;;;;;;;3.80;2.63;;;;;;;17.92;53.99;100639.19;6282837;22;20007;-87
2022/12/21 18:58:05;;;;;;;3.78;2.63;;;;;;;17.93;54.19;100640.03;6258444;22;20007;-86
2022/12/21 19:00:30;;;;;;;5.00;2.60;;;;;;;17.92;53.89;100640.91;6282298;22;20053;-87
2022/12/21 19:02:55;;;;;;;3.88;2.70;;;;;;;17.92;54.18;100635.69;6284205;22;20003;-86
2022/12/21 19:05:26;;;;;;;3.63;2.70;;;;;;;17.94;53.80;100633.94;6283925;22;20007;-86
2022/12/21 19:07:54;;;;;;;3.30;2.45;;;;;;;17.93;54.14;100633.09;6281772;22;20008;-87
2022/12/21 19:10:24;;;;;;;4.20;2.80;;;;;;;17.94;53.96;100629.59;6283297;22;20090;-87
2022/12/21 19:12:53;;;;;;;3.35;2.40;;;;;;;17.94;54.02;100628.72;6283320;22;20440;-86
2022/12/21 19:15:18;;;;;;;2.90;2.50;;;;;;;17.94;53.91;100628.72;6284217;22;20391;-87
2022/12/21 19:17:50;;;;;;;4.15;2.50;;;;;;;17.93;53.92;100622.66;6284435;22;20663;-89
2022/12/21 19:20:21;;;;;;;2.58;2.20;;;;;;;17.94;54.10;100624.38;6257950;22;20008;-89
2022/12/21 19:22:50;;;;;;;3.03;2.20;;;;;;;17.94;54.10;100624.38;6283786;22;20015;-89
2022/12/21 19:47:06;;;;;;;3.80;2.13;;;;;;;17.79;54.26;100612.44;6323337;22;20053;-91
2022/12/21 20:06:12;;;;;;;3.15;2.10;;;;;;;17.70;54.41;100583.91;6324423;22;20049;-90
2022/12/21 21:02:01;;;;;;;2.55;1.75;;;;;;;17.79;55.84;100518.72;6271093;22;20050;-84
2022/12/21 21:04:35;;;;;;;5.75;1.95;;;;;;;17.81;55.99;100529.97;6254715;22;20010;-85
2022/12/21 21:13:30;;;;;;;2.45;1.70;;;;;;;17.79;55.96;100536.06;6289339;22;20021;-85
2022/12/21 21:15:56;;;;;;;2.47;1.85;;;;;;;17.79;55.93;100536.94;6258474;22;20067;-85
2022/12/21 21:18:21;;;;;;;2.65;1.90;;;;;;;17.78;56.00;100535.22;6257348;22;20451;-85
2022/12/21 21:23:32;;;;;;;2.80;1.95;;;;;;;17.77;56.09;100528.31;6264280;22;20037;-86
2022/12/21 21:25:57;;;;;;;2.55;1.90;;;;;;;17.79;55.94;100528.25;6206277;22;20007;-84
2022/12/21 21:28:25;;;;;;;2.97;2.15;;;;;;;17.77;56.11;100524.81;6230842;22;20022;-89
2022/12/21 21:30:56;;;;;;;3.03;2.10;;;;;;;17.75;55.89;100511.84;6255802;22;20003;-85
2022/12/21 21:33:24;;;;;;;3.03;2.20;;;;;;;17.76;56.26;100517.91;6257585;22;20053;-86
2022/12/21 21:35:52;;;;;;;2.33;1.83;;;;;;;17.75;56.25;100518.81;6230707;22;20546;-86
2022/12/21 21:41:40;;;;;;;2.95;2.25;;;;;;;17.75;55.93;100508.41;6286217;22;20018;-87
2022/12/21 21:44:17;;;;;;;3.20;2.22;;;;;;;17.74;56.12;100498.84;6257686;22;20085;-86
2022/12/21 21:46:43;;;;;;;2.40;2.00;;;;;;;17.74;56.16;100496.25;6256352;22;20030;-84
2022/12/21 21:49:21;;;;;;;2.70;2.22;;;;;;;17.72;55.88;100492.81;6285542;22;20434;-85
2022/12/21 21:51:49;;;;;;;3.03;2.30;;;;;;;17.72;56.24;100492.81;6260598;22;20023;-85
2022/12/21 21:54:16;;;;;;;2.97;2.50;;;;;;;17.72;56.31;100498.00;6257983;22;20382;-84
2022/12/21 21:56:43;;;;;;;2.90;2.30;;;;;;;17.72;56.10;100493.66;6257450;22;20059;-85
2022/12/21 21:59:18;;;;;;;2.95;2.13;;;;;;;17.71;56.33;100491.09;6260976;22;20003;-85
2022/12/21 22:01:44;;;;;;;2.88;2.35;;;;;;;17.70;56.10;100490.22;6260653;22;20008;-85
2022/12/21 22:04:30;;;;;;;3.45;2.50;;;;;;;17.70;56.03;100485.00;6262336;22;20015;-87
2022/12/21 22:06:55;;;;;;;2.97;2.22;;;;;;;17.70;56.19;100495.44;6264996;22;20031;-87
2022/12/21 22:09:20;;;;;;;2.92;2.33;;;;;;;17.70;56.11;100485.00;6233982;22;20424;-86
2022/12/21 22:11:59;;;;;;;2.65;2.20;;;;;;;17.70;56.07;100487.63;6234422;22;20007;-85
2022/12/21 22:15:11;;;;;;;3.00;2.17;;;;;;;17.68;56.29;100485.06;6257024;22;20382;-87
2022/12/21 22:17:20;;;;;;;3.20;2.35;;;;;;;17.67;55.90;100485.94;6283318;22;20004;-85
2022/12/21 22:34:05;;;;;;;2.78;2.40;;;;;;;17.66;56.23;100479.03;6271051;22;20054;-88
2022/12/21 22:45:59;;;;;;;2.50;2.05;;;;;;;17.66;55.98;100475.56;6288566;22;20463;-85
2022/12/21 22:48:24;;;;;;;3.75;2.55;;;;;;;17.65;55.96;100474.69;6261235;22;19999;-85
2022/12/21 22:50:57;;;;;;;2.92;2.10;;;;;;;17.67;56.01;100478.13;6259129;22;20010;-81
2022/12/21 22:53:33;;;;;;;4.13;2.05;;;;;;;17.68;55.95;100477.25;6251778;22;20003;-82
2022/12/21 22:55:59;;;;;;;2.72;2.08;;;;;;;17.67;56.13;100475.53;6251605;22;20058;-83
2022/12/21 22:58:28;;;;;;;4.20;2.50;;;;;;;17.68;56.27;100473.78;6251569;22;20012;-82
2022/12/21 23:00:53;;;;;;;4.45;2.53;;;;;;;17.67;56.00;100479.88;6250890;22;20012;-82
2022/12/21 23:03:19;;;;;;;2.60;2.20;;;;;;;17.67;55.94;100474.66;6277301;22;20420;-85
2022/12/21 23:05:45;;;;;;;4.45;2.65;;;;;;;17.67;56.06;100474.66;6230646;22;20050;-84
2022/12/21 23:08:11;;;;;;;3.20;2.53;;;;;;;17.66;56.15;100480.78;6232374;22;20420;-85
2022/12/21 23:10:43;;;;;;;3.40;2.53;;;;;;;17.66;56.24;100483.38;6229239;22;20011;-85
2022/12/21 23:16:00;;;;;;;5.55;2.28;;;;;;;17.66;55.67;100475.56;6284921;22;20343;-85
2022/12/21 23:18:32;;;;;;;5.28;2.42;;;;;;;17.65;56.01;100479.03;6230453;22;19999;-85
2022/12/21 23:45:37;;;;;;;4.97;2.13;;;;;;;17.61;55.89;100446.97;6291456;22;20356;-86
